createdAt,value
2023-03-29T00:02:41.887Z,5.25
2023-03-29T00:06:22.071Z,7.70
2023-03-29T00:09:54.193Z,4.73
2023-03-29T00:13:26.927Z,5.65
2023-03-29T00:16:59.283Z,6.90
2023-03-29T00:20:31.508Z,5.73
2023-03-29T00:24:03.806Z,6.95
2023-03-29T00:27:35.814Z,6.88
2023-03-29T00:31:11.144Z,6.77
2023-03-29T00:34:46.108Z,6.03
2023-03-29T00:38:18.440Z,5.97
2023-03-29T00:41:51.091Z,6.35
2023-03-29T00:45:30.649Z,5.47
2023-03-29T00:49:13.647Z,5.53
2023-03-29T00:52:51.069Z,6.75
2023-03-29T00:56:30.275Z,7.63
2023-03-29T01:00:05.720Z,9.07
2023-03-29T01:03:47.301Z,8.13
2023-03-29T01:07:28.414Z,6.97
2023-03-29T01:11:08.751Z,7.10
2023-03-29T01:14:46.175Z,7.93
2023-03-29T01:18:19.784Z,6.78
2023-03-29T01:21:55.976Z,6.97
2023-03-29T01:25:46.691Z,5.78
2023-03-29T01:29:31.966Z,6.90
2023-03-29T01:33:21.260Z,5.73
2023-03-29T01:37:24.667Z,6.57
2023-03-29T01:40:58.302Z,6.07
2023-03-29T01:44:40.502Z,6.30
2023-03-29T01:48:20.062Z,5.75
2023-03-29T01:52:25.866Z,6.72
2023-03-29T01:56:11.775Z,6.32
2023-03-29T01:59:45.862Z,5.73
2023-03-29T02:03:19.656Z,7.35
2023-03-29T02:06:54.262Z,6.43
2023-03-29T02:10:27.816Z,6.63
2023-03-29T02:13:59.664Z,6.25
2023-03-29T02:17:31.780Z,5.78
2023-03-29T02:21:04.115Z,6.27
2023-03-29T02:24:39.476Z,5.75
2023-03-29T02:28:12.878Z,6.20
2023-03-29T02:31:53.548Z,7.85
2023-03-29T02:35:48.597Z,9.40
2023-03-29T02:39:21.771Z,8.05
2023-03-29T02:42:56.014Z,6.93
2023-03-29T02:46:28.206Z,7.70
2023-03-29T02:50:00.562Z,7.70
2023-03-29T02:53:47.534Z,7.53
2023-03-29T02:57:26.588Z,8.07
2023-03-29T03:01:01.439Z,6.75
2023-03-29T03:04:35.776Z,7.72
2023-03-29T03:08:08.089Z,6.82
2023-03-29T03:11:40.309Z,7.23
2023-03-29T03:15:13.443Z,6.95
2023-03-29T03:18:46.120Z,6.47
2023-03-29T03:22:18.450Z,6.83
2023-03-29T03:25:50.218Z,7.15
2023-03-29T03:29:22.421Z,6.70
2023-03-29T03:32:57.582Z,7.07
2023-03-29T03:36:31.562Z,6.55
2023-03-29T03:40:04.269Z,6.97
2023-03-29T03:43:36.660Z,6.43
2023-03-29T03:47:09.116Z,5.57
2023-03-29T03:50:41.156Z,6.68
2023-03-29T03:54:13.529Z,6.63
2023-03-29T03:57:47.969Z,6.37
2023-03-29T04:01:19.807Z,5.93
2023-03-29T04:04:51.875Z,7.18
2023-03-29T04:08:24.082Z,6.63
2023-03-29T04:11:56.795Z,6.40
2023-03-29T04:15:29.903Z,6.72
2023-03-29T04:19:02.300Z,5.25
2023-03-29T04:22:34.378Z,6.37
2023-03-29T04:26:07.997Z,7.00
2023-03-29T04:29:40.165Z,6.72
2023-03-29T04:33:12.768Z,5.60
2023-03-29T04:36:44.555Z,6.47
2023-03-29T04:40:19.499Z,6.90
2023-03-29T04:43:52.618Z,7.13
2023-03-29T04:47:24.744Z,5.03
2023-03-29T04:50:57.402Z,7.97
2023-03-29T04:54:29.624Z,7.53
2023-03-29T04:58:02.663Z,6.40
2023-03-29T05:01:35.623Z,6.20
2023-03-29T05:05:08.537Z,7.45
2023-03-29T05:08:41.001Z,6.83
2023-03-29T05:12:13.218Z,7.60
2023-03-29T05:15:45.337Z,6.40
2023-03-29T05:19:17.625Z,8.23
2023-03-29T05:22:49.911Z,7.00
2023-03-29T05:26:23.298Z,8.80
2023-03-29T05:29:55.174Z,7.40
2023-03-29T05:33:27.784Z,7.13
2023-03-29T05:37:01.498Z,9.10
2023-03-29T05:40:35.802Z,8.45
2023-03-29T05:44:07.626Z,7.17
2023-03-29T05:47:39.763Z,6.20
2023-03-29T05:51:12.114Z,7.40
2023-03-29T05:54:44.218Z,8.33
2023-03-29T05:58:18.060Z,7.63
2023-03-29T06:01:50.428Z,6.72
2023-03-29T06:05:22.992Z,7.25
2023-03-29T06:08:55.098Z,6.63
2023-03-29T06:12:28.159Z,6.72
2023-03-29T06:16:01.120Z,7.82
2023-03-29T06:19:33.244Z,9.07
2023-03-29T06:23:05.136Z,9.27
2023-03-29T06:26:37.215Z,8.40
2023-03-29T06:30:09.358Z,9.33
2023-03-29T06:33:43.233Z,6.43
2023-03-29T06:37:15.051Z,6.47
2023-03-29T06:40:48.412Z,5.78
2023-03-29T06:44:20.239Z,5.97
2023-03-29T06:47:52.597Z,5.43
2023-03-29T06:51:24.512Z,5.47
2023-03-29T06:54:56.691Z,6.57
2023-03-29T06:58:28.847Z,5.55
2023-03-29T07:02:01.065Z,5.38
2023-03-29T07:05:36.442Z,5.70
2023-03-29T07:09:09.001Z,6.78
2023-03-29T07:12:41.069Z,5.70
2023-03-29T07:16:13.992Z,7.43
2023-03-29T07:19:47.359Z,5.47
2023-03-29T07:23:20.305Z,5.10
2023-03-29T07:27:03.097Z,4.88
2023-03-29T07:30:37.544Z,3.87
2023-03-29T07:34:11.108Z,4.05
2023-03-29T07:37:44.664Z,4.10
2023-03-29T07:41:18.249Z,3.97
2023-03-29T07:44:50.771Z,3.95
2023-03-29T07:48:22.593Z,3.85
2023-03-29T07:51:55.471Z,3.83
2023-03-29T07:55:27.702Z,4.20
2023-03-29T07:58:59.648Z,4.35
2023-03-29T08:02:31.930Z,3.85
2023-03-29T08:06:04.072Z,3.97
2023-03-29T08:09:37.303Z,3.60
2023-03-29T08:13:10.937Z,4.28
2023-03-29T08:16:43.131Z,4.10
2023-03-29T08:20:18.508Z,3.92
2023-03-29T08:23:51.118Z,4.05
2023-03-29T08:27:23.076Z,3.88
2023-03-29T08:30:55.259Z,3.60
2023-03-29T08:34:27.552Z,4.45
2023-03-29T08:37:59.723Z,3.58
2023-03-29T08:42:08.984Z,3.57
2023-03-29T08:45:51.126Z,4.10
2023-03-29T08:49:23.567Z,3.80
2023-03-29T08:53:00.992Z,3.92
2023-03-29T08:56:35.273Z,4.00
2023-03-29T09:00:13.860Z,2.45
2023-03-29T09:04:03.729Z,2.13
2023-03-29T09:07:35.873Z,3.77
2023-03-29T09:11:24.079Z,3.43
2023-03-29T09:15:19.502Z,4.20
2023-03-29T09:19:11.990Z,3.30
2023-03-29T09:22:52.797Z,2.90
2023-03-29T09:26:34.511Z,2.72
2023-03-29T09:30:17.174Z,3.22
2023-03-29T09:33:59.317Z,3.00
2023-03-29T09:37:34.741Z,2.63
2023-03-29T09:41:32.738Z,2.20
2023-03-29T09:45:09.374Z,2.45
2023-03-29T09:48:44.885Z,2.83
2023-03-29T09:52:17.420Z,2.97
2023-03-29T09:55:50.942Z,2.53
2023-03-29T09:59:22.787Z,2.35
2023-03-29T10:02:58.255Z,3.17
2023-03-29T10:06:30.101Z,3.03
2023-03-29T10:10:02.224Z,3.05
2023-03-29T10:13:37.348Z,3.10
2023-03-29T10:17:18.445Z,2.72
2023-03-29T10:20:50.934Z,2.55
2023-03-29T10:24:26.609Z,2.15
2023-03-29T10:28:05.213Z,1.50
2023-03-29T10:31:41.701Z,2.88
2023-03-29T10:35:43.740Z,2.33
2023-03-29T10:39:16.459Z,1.73
2023-03-29T10:42:50.758Z,1.87
2023-03-29T10:46:32.068Z,2.20
2023-03-29T10:50:06.236Z,1.58
2023-03-29T10:53:38.347Z,1.97
2023-03-29T10:57:16.758Z,1.73
2023-03-29T11:00:52.395Z,1.50
2023-03-29T11:04:48.048Z,1.60
2023-03-29T11:08:35.152Z,1.80
2023-03-29T11:12:28.646Z,1.23
2023-03-29T11:16:18.647Z,1.98
2023-03-29T11:20:19.769Z,1.40
2023-03-29T11:24:22.358Z,1.43
2023-03-29T11:27:59.093Z,1.90
2023-03-29T11:31:58.779Z,2.05
2023-03-29T11:35:54.073Z,0.98
2023-03-29T11:39:30.418Z,1.83
2023-03-29T11:43:07.952Z,1.10
2023-03-29T11:46:46.195Z,1.30
2023-03-29T11:50:19.628Z,1.55
2023-03-29T11:54:11.203Z,1.80
2023-03-29T11:58:14.877Z,1.95
2023-03-29T12:01:54.256Z,2.10
2023-03-29T12:05:39.760Z,1.80
2023-03-29T12:09:24.430Z,1.73
2023-03-29T12:13:08.206Z,1.63
2023-03-29T12:16:52.047Z,1.58
2023-03-29T12:20:31.684Z,1.60
2023-03-29T12:24:04.436Z,1.60
2023-03-29T12:27:55.177Z,1.38
2023-03-29T12:31:48.841Z,2.17
2023-03-29T12:35:23.775Z,2.23
2023-03-29T12:38:56.148Z,2.00
2023-03-29T12:42:28.310Z,1.75
2023-03-29T12:46:06.763Z,2.20
2023-03-29T12:49:39.160Z,2.33
2023-03-29T12:53:14.293Z,1.83
2023-03-29T12:56:57.054Z,1.60
2023-03-29T13:00:36.618Z,2.15
2023-03-29T13:04:34.400Z,2.20
2023-03-29T13:08:27.160Z,1.80
2023-03-29T13:12:11.383Z,2.17
2023-03-29T13:15:45.325Z,2.03
2023-03-29T13:19:46.799Z,2.27
2023-03-29T13:23:31.889Z,2.27
2023-03-29T13:27:28.020Z,2.45
2023-03-29T13:31:11.071Z,1.80
2023-03-29T13:34:55.080Z,1.83
2023-03-29T13:38:31.822Z,1.67
2023-03-29T13:42:19.733Z,2.38
2023-03-29T13:46:06.780Z,2.85
2023-03-29T13:49:41.057Z,2.00
2023-03-29T13:53:21.526Z,2.27
2023-03-29T13:57:02.719Z,2.13
2023-03-29T14:00:41.591Z,2.30
2023-03-29T14:04:30.708Z,2.13
2023-03-29T14:08:13.438Z,1.70
2023-03-29T14:11:47.294Z,1.92
2023-03-29T14:15:34.937Z,1.55
2023-03-29T14:19:14.531Z,1.73
2023-03-29T14:22:54.017Z,1.73
2023-03-29T14:26:34.654Z,2.00
2023-03-29T14:30:27.583Z,1.92
2023-03-29T14:34:01.425Z,1.23
2023-03-29T14:37:34.184Z,1.75
2023-03-29T14:41:07.502Z,2.05
2023-03-29T14:44:39.496Z,1.42
2023-03-29T14:48:13.816Z,1.30
2023-03-29T14:51:47.143Z,1.60
2023-03-29T14:55:23.912Z,1.17
2023-03-29T14:58:57.226Z,1.30
2023-03-29T15:02:34.037Z,1.27
2023-03-29T15:06:06.717Z,1.15
2023-03-29T15:09:40.063Z,1.95
2023-03-29T15:13:18.544Z,1.00
2023-03-29T15:16:53.468Z,0.70
2023-03-29T15:20:29.151Z,0.70
2023-03-29T15:24:04.116Z,0.90
2023-03-29T15:27:42.711Z,1.30
2023-03-29T15:31:18.687Z,0.68
2023-03-29T15:35:06.199Z,0.93
2023-03-29T15:38:45.186Z,0.60
2023-03-29T15:42:17.377Z,0.50
2023-03-29T15:45:52.260Z,0.73
2023-03-29T15:49:24.866Z,0.90
2023-03-29T15:53:08.592Z,1.10
2023-03-29T15:56:49.908Z,0.60
2023-03-29T16:00:23.701Z,0.50
2023-03-29T16:03:55.930Z,0.90
2023-03-29T16:07:28.142Z,1.00
2023-03-29T16:11:00.759Z,0.97
2023-03-29T16:14:33.642Z,0.57
2023-03-29T16:18:07.843Z,1.05
2023-03-29T16:21:40.665Z,1.00
2023-03-29T16:25:18.462Z,1.20
2023-03-29T16:28:52.146Z,1.25
2023-03-29T16:32:24.172Z,1.10
2023-03-29T16:35:56.638Z,1.00
2023-03-29T16:39:31.044Z,1.08
2023-03-29T16:43:04.087Z,0.93
2023-03-29T16:46:35.940Z,1.10
2023-03-29T16:50:15.338Z,0.87
2023-03-29T16:53:48.958Z,1.35
2023-03-29T16:57:21.115Z,1.50
2023-03-29T17:00:53.817Z,1.30
2023-03-29T17:04:26.314Z,1.30
2023-03-29T17:07:58.504Z,1.98
2023-03-29T17:11:30.762Z,1.55
2023-03-29T17:15:05.167Z,1.53
2023-03-29T17:18:39.429Z,1.55
2023-03-29T17:22:11.782Z,1.85
2023-03-29T17:25:44.031Z,1.52
2023-03-29T17:29:18.603Z,1.93
2023-03-29T17:32:54.483Z,2.13
2023-03-29T17:36:28.283Z,1.75
2023-03-29T17:40:01.243Z,1.80
2023-03-29T17:43:34.405Z,2.50
2023-03-29T17:47:06.722Z,3.03
2023-03-29T17:50:39.292Z,4.10
2023-03-29T17:54:12.251Z,2.20
2023-03-29T17:57:44.438Z,2.45
2023-03-29T18:01:19.665Z,3.35
2023-03-29T18:04:52.875Z,2.60
2023-03-29T18:08:25.122Z,3.07
2023-03-29T18:11:57.207Z,3.72
2023-03-29T18:15:29.553Z,3.25
2023-03-29T18:19:01.808Z,3.70
2023-03-29T18:22:34.165Z,3.23
2023-03-29T18:26:07.952Z,3.55
2023-03-29T18:29:39.772Z,3.30
2023-03-29T18:33:11.982Z,2.83
2023-03-29T18:36:43.871Z,2.83
2023-03-29T18:40:20.963Z,3.15
2023-03-29T18:43:55.129Z,2.87
2023-03-29T18:47:27.480Z,2.87
2023-03-29T18:51:25.938Z,3.10
2023-03-29T18:54:58.057Z,3.35
2023-03-29T18:58:30.727Z,3.50
2023-03-29T19:02:03.662Z,3.42
2023-03-29T19:05:39.275Z,3.15
2023-03-29T19:09:11.412Z,3.30
2023-03-29T19:12:44.069Z,3.30
2023-03-29T19:16:16.456Z,3.67
2023-03-29T19:19:48.637Z,4.15
2023-03-29T19:23:21.908Z,4.20
2023-03-29T19:26:54.281Z,4.45
2023-03-29T19:30:27.742Z,4.88
2023-03-29T19:33:59.749Z,4.07
2023-03-29T19:37:32.260Z,4.25
2023-03-29T19:41:07.720Z,4.25
2023-03-29T19:44:39.853Z,4.60
2023-03-29T19:48:21.113Z,5.83
2023-03-29T19:51:55.616Z,4.70
2023-03-29T19:55:27.469Z,5.10
2023-03-29T19:58:59.528Z,5.03
2023-03-29T20:02:31.404Z,4.10
2023-03-29T20:06:03.841Z,4.97
2023-03-29T20:09:35.955Z,4.15
2023-03-29T20:13:08.038Z,4.10
2023-03-29T20:16:40.907Z,3.58
2023-03-29T20:20:14.330Z,4.10
2023-03-29T20:23:46.676Z,4.37
2023-03-29T20:27:18.995Z,4.20
2023-03-29T20:30:51.755Z,3.15
2023-03-29T20:34:23.878Z,3.45
2023-03-29T20:37:56.089Z,3.70
2023-03-29T20:41:28.273Z,4.25
2023-03-29T20:45:01.390Z,3.45
2023-03-29T20:48:36.431Z,4.33
2023-03-29T20:52:15.911Z,4.63
2023-03-29T20:55:48.124Z,4.22
2023-03-29T20:59:23.049Z,4.88
2023-03-29T21:02:56.428Z,5.67
2023-03-29T21:06:28.614Z,4.95
2023-03-29T21:10:01.165Z,5.75
2023-03-29T21:13:36.496Z,4.97
2023-03-29T21:17:09.439Z,4.70
2023-03-29T21:20:42.080Z,4.63
2023-03-29T21:24:13.871Z,5.18
2023-03-29T21:27:46.248Z,4.87
2023-03-29T21:31:18.282Z,4.35
2023-03-29T21:34:50.412Z,5.18
2023-03-29T21:38:22.651Z,4.47
2023-03-29T21:41:54.948Z,4.97
2023-03-29T21:45:27.275Z,4.50
2023-03-29T21:49:02.655Z,4.80
2023-03-29T21:52:35.003Z,4.60
2023-03-29T21:56:08.282Z,4.05
2023-03-29T21:59:40.839Z,4.97
2023-03-29T22:03:13.066Z,4.65
2023-03-29T22:06:45.260Z,4.40
2023-03-29T22:10:17.553Z,5.53
2023-03-29T22:13:53.172Z,4.57
2023-03-29T22:17:26.721Z,5.17
2023-03-29T22:20:58.937Z,5.47
2023-03-29T22:24:30.992Z,5.15
2023-03-29T22:28:03.055Z,5.45
2023-03-29T22:31:34.883Z,5.20
2023-03-29T22:35:07.884Z,5.45
2023-03-29T22:38:39.823Z,4.90
2023-03-29T22:42:12.056Z,5.10
2023-03-29T22:45:44.226Z,4.80
2023-03-29T22:49:16.066Z,5.85
2023-03-29T22:52:48.261Z,6.30
2023-03-29T22:56:20.518Z,5.97
2023-03-29T22:59:53.688Z,5.43
2023-03-29T23:03:26.742Z,5.85
2023-03-29T23:06:59.133Z,5.63
2023-03-29T23:10:33.885Z,5.70
2023-03-29T23:14:08.699Z,5.85
2023-03-29T23:17:40.949Z,5.03
2023-03-29T23:21:13.061Z,5.80
2023-03-29T23:24:47.274Z,6.22
2023-03-29T23:28:23.653Z,5.68
2023-03-29T23:31:56.950Z,6.20
2023-03-29T23:35:32.312Z,5.65
2023-03-29T23:39:07.140Z,5.57
2023-03-29T23:42:40.496Z,5.83
2023-03-29T23:46:15.493Z,6.57
2023-03-29T23:49:47.862Z,6.32
2023-03-29T23:53:20.914Z,5.90
2023-03-29T23:56:53.477Z,4.90
